Latest Weather Observations for Batchelor

IDD60901

Issued at 7:31 am CST Tuesday 22 January 2019 (issued every 10 minutes, with the page automatically refreshed every 10 minutes)

About weather observations | Map of Darwin area stations | Latest observations for Darwin area | Other Formats
Station Details ID: 014272 Name: BATCHELOR AIRPORT Lat: -13.05 Lon: 131.03 Height: 104.0 m
Data from the previous 72 hours. | See also: Recent months at Batchelor
Date/Time
CST
Temp
°C
App
Temp
°C
Dew
Point
°C
Rel
Hum
%
Delta-T
°C
Wind Press
QNH
hPa
Press
MSL
hPa
Rain since
9am
mm
Dir  Spd
km/h
Gust
km/h
Spd
kts
Gust
kts
22/07:30am 25.1 29.7 24.8 98 0.2 E 9 13 5 7 1007.2 1006.5 9.4
22/07:00am 24.9 29.5 24.7 99 0.1 ESE 9 15 5 8 1006.8 1006.0 9.4
22/06:30am 24.7 28.8 24.5 99 0.1 ESE 11 17 6 9 1006.4 1005.6 9.4
22/06:00am 24.7 29.1 24.5 99 0.1 ESE 9 13 5 7 1006.5 1005.7 9.4
22/05:30am 24.5 29.2 24.3 99 0.1 ESE 7 11 4 6 1006.2 1005.4 9.4
22/05:00am 24.4 28.6 24.1 98 0.2 E 9 11 5 6 1006.1 1005.3 9.4
22/04:30am 24.3 28.3 23.8 97 0.3 E 9 13 5 7 1005.8 1005.0 9.4
22/04:00am 24.3 28.2 23.6 96 0.5 ESE 9 13 5 7 1006.2 1005.4 9.4
22/03:30am 24.3 28.5 23.4 95 0.6 E 7 9 4 5 1005.9 1005.1 9.4
22/03:00am 24.4 28.2 23.4 94 0.7 ESE 9 13 5 7 1006.3 1005.5 9.4
22/02:30am 24.4 28.2 23.4 94 0.7 ESE 9 13 5 7 1006.7 1005.9 9.4
22/02:00am 24.3 28.1 23.4 95 0.6 ESE 9 13 5 7 1006.9 1006.1 9.4
22/01:30am 24.3 28.0 23.3 94 0.7 ESE 9 15 5 8 1007.3 1006.6 9.4
22/01:00am 24.3 28.0 23.3 94 0.7 ESE 9 13 5 7 1007.6 1006.9 9.4
22/12:30am 24.3 27.9 23.1 93 0.8 ESE 9 13 5 7 1007.7 1007.0 9.4
22/12:00am 24.7 27.7 23.3 92 1.0 ESE 13 17 7 9 1007.9 1007.2 9.4
 
Date/Time
CST
Temp
°C
App
Temp
°C
Dew
Point
°C
Rel
Hum
%
Delta-T
°C
Wind Press
QNH
hPa
Press
MSL
hPa
Rain since
9am
mm
Dir  Spd
km/h
Gust
km/h
Spd
kts
Gust
kts
21/11:30pm 24.5 29.2 24.0 97 0.3 SE 6 7 3 4 1007.8 1007.1 9.4
21/11:00pm 24.3 29.8 24.0 98 0.2 SE 2 4 1 2 1007.8 1007.1 9.4
21/10:30pm 24.2 29.2 23.9 98 0.2 SE 4 6 2 3 1008.1 1007.4 9.4
21/10:00pm 24.1 28.4 23.6 97 0.3 ESE 7 9 4 5 1008.1 1007.4 9.4
21/09:30pm 24.2 26.2 23.0 93 0.8 ESE 17 28 9 15 1008.5 1007.8 7.2
21/09:18pm 24.2 23.1 21.7 86 1.7 ESE 30 48 16 26 1008.5 1007.8 6.4
21/09:09pm 26.7 28.6 22.8 79 2.7 ESE 17 48 9 26 1008.1 1007.4 5.2
21/09:00pm 26.8 31.8 24.8 89 1.4 E 7 11 4 6 1007.7 1007.0 5.2
21/08:30pm 26.8 32.2 24.5 87 1.6 NE 4 6 2 3 1007.2 1006.5 5.2
21/08:00pm 26.6 32.1 24.1 86 1.7 NE 2 2 1 1 1006.2 1005.4 5.2
21/07:30pm 26.5 31.1 23.8 85 1.9 NE 6 7 3 4 1005.8 1005.0 5.2
21/07:00pm 26.6 31.3 23.3 82 2.3 NNE 4 7 2 4 1005.5 1004.7 5.2
21/06:30pm 26.4 31.4 23.9 86 1.7 NE 4 7 2 4 1005.2 1004.4 5.2
21/06:00pm 25.6 30.5 23.7 89 1.3 N 4 6 2 3 1005.1 1004.3 5.2
21/05:30pm 25.2 27.2 22.3 84 2.0 NNE 15 24 8 13 1004.7 1003.9 5.0
21/05:06pm 27.4 28.8 22.8 76 3.1 NNE 20 46 11 25 1005.1 1004.3 4.4
21/05:00pm 30.0 34.3 24.2 71 4.0 N 9 28 5 15 1004.2 1003.4 4.4
21/04:30pm 31.4 37.7 26.0 73 3.9 WNW 4 7 2 4 1003.6 1002.8 4.4
21/04:00pm 29.0 34.3 25.8 83 2.3 ESE 9 19 5 10 1003.9 1003.1 4.4
21/03:30pm 28.5 33.8 24.9 81 2.5 SSE 6 13 3 7 1004.2 1003.4 2.6
21/03:17pm 28.2 29.7 22.7 72 3.7 ENE 19 43 10 23 1004.7 1003.9 2.6
21/03:00pm 33.4 36.3 23.1 54 7.2 E 13 20 7 11 1004.3 1003.5 0.2
21/02:30pm 33.6 36.5 23.9 57 6.8 E 15 22 8 12 1004.9 1004.1 0.2
21/02:00pm 32.6 35.2 22.7 56 6.8 E 13 20 7 11 1005.5 1004.7 0.2
21/01:30pm 32.1 35.2 22.8 58 6.4 NE 11 17 6 9 1006.1 1005.3 0.2
21/01:00pm 32.6 36.1 23.5 58 6.3 E 11 19 6 10 1006.5 1005.7 0.2
21/12:30pm 32.5 35.0 23.2 58 6.5 ENE 15 28 8 15 1006.8 1006.0 0.2
21/12:00pm 32.4 35.7 23.9 61 6.0 E 13 20 7 11 1007.0 1006.2 0.2
21/11:30am 30.9 34.7 24.1 67 4.8 ESE 11 15 6 8 1007.3 1006.6 0.0
21/11:00am 30.1 33.5 24.0 70 4.2 ESE 13 19 7 10 1007.5 1006.8 0.0
21/10:30am 29.7 32.6 23.9 71 4.0 ESE 15 22 8 12 1007.8 1007.1 0.0
21/10:00am 29.3 32.4 24.2 74 3.6 E 15 20 8 11 1007.9 1007.2 0.0
21/09:30am 28.6 32.2 24.4 78 2.9 ESE 13 17 7 9 1007.7 1007.0 0.0
21/09:00am 28.3 32.1 24.1 78 2.9 E 11 19 6 10 1007.5 1006.8 0.6
21/08:30am 27.9 32.6 24.9 84 2.1 ESE 9 17 5 9 1007.3 1006.6 0.6
21/08:00am 27.2 31.8 24.8 87 1.7 SE 9 11 5 6 1007.4 1006.7 0.6
21/07:30am 26.1 31.5 25.2 95 0.6 SE 6 7 3 4 1007.0 1006.2 0.6
21/07:00am 25.6 32.3 25.4 99 0.1 CALM 0 0 0 0 1006.8 1006.0 0.6
21/06:30am 25.2 30.9 25.0 99 0.1 SSE 4 6 2 3 1006.3 1005.5 0.6
21/06:00am 25.3 31.1 25.1 99 0.1 E 4 6 2 3 1006.1 1005.3 0.6
21/05:30am 25.6 31.2 25.4 99 0.1 E 6 7 3 4 1006.2 1005.4 0.6
21/05:00am 25.7 32.0 25.4 98 0.2 ENE 2 4 1 2 1006.0 1005.2 0.6
21/04:30am 25.8 31.7 25.3 97 0.4 ENE 4 6 2 3 1005.9 1005.1 0.6
21/04:00am 25.9 31.8 25.4 97 0.4 NE 4 6 2 3 1005.6 1004.8 0.6
21/03:30am 26.0 31.9 25.3 96 0.5 ENE 4 6 2 3 1005.5 1004.7 0.6
21/03:00am 26.1 31.7 25.4 96 0.5 E 6 7 3 4 1006.0 1005.2 0.6
21/02:30am 26.1 31.5 25.1 94 0.7 ESE 6 7 3 4 1006.3 1005.5 0.6
21/02:00am 26.1 31.2 24.9 93 0.8 ESE 7 9 4 5 1006.8 1006.0 0.6
21/01:30am 26.2 31.2 24.8 92 1.0 ESE 7 9 4 5 1007.4 1006.7 0.6
21/01:00am 26.2 31.3 25.0 93 0.8 ESE 7 9 4 5 1007.8 1007.1 0.6
21/12:30am 26.4 31.7 25.0 92 1.0 E 6 7 3 4 1008.0 1007.3 0.6
21/12:00am 26.6 32.2 24.8 90 1.3 E 4 6 2 3 1008.2 1007.5 0.6
 
Date/Time
CST
Temp
°C
App
Temp
°C
Dew
Point
°C
Rel
Hum
%
Delta-T
°C
Wind Press
QNH
hPa
Press
MSL
hPa
Rain since
9am
mm
Dir  Spd
km/h
Gust
km/h
Spd
kts
Gust
kts
20/11:30pm 26.7 32.1 24.5 88 1.5 ENE 4 6 2 3 1008.5 1007.8 0.6
20/11:00pm 26.8 31.8 24.5 87 1.6 E 6 7 3 4 1008.9 1008.2 0.6
20/10:30pm 27.0 32.2 24.8 88 1.5 ENE 6 9 3 5 1008.7 1008.0 0.6
20/10:00pm 27.2 32.5 25.2 89 1.4 E 7 11 4 6 1008.6 1007.9 0.6
20/09:30pm 27.5 32.7 25.1 87 1.7 ESE 7 11 4 6 1008.3 1007.6 0.4
20/09:00pm 28.2 33.4 24.8 82 2.4 E 6 7 3 4 1007.7 1007.0 0.4
20/08:30pm 28.8 34.2 25.2 81 2.5 ENE 6 9 3 5 1007.2 1006.5 0.4
20/08:00pm 28.9 33.6 24.0 75 3.4 E 6 9 3 5 1006.8 1006.0 0.4
20/07:30pm 30.4 36.5 25.0 73 3.8 E 2 4 1 2 1006.6 1005.8 0.4
20/07:00pm 30.8 37.0 25.2 72 4.0 E 2 4 1 2 1006.5 1005.7 0.4
20/06:30pm 31.1 36.6 24.7 68 4.5 E 4 6 2 3 1006.0 1005.2 0.4
20/06:00pm 31.4 36.8 24.5 67 4.9 E 4 6 2 3 1005.8 1005.0 0.4
20/05:30pm 31.0 36.6 24.9 70 4.3 NNE 4 7 2 4 1005.2 1004.4 0.4
20/05:00pm 30.1 34.5 23.8 69 4.4 NE 7 15 4 8 1005.2 1004.4 0.4
20/04:30pm 32.9 37.3 23.5 57 6.6 ESE 6 19 3 10 1004.7 1003.9 0.0
20/04:00pm 32.7 36.8 23.9 60 6.2 E 9 17 5 9 1004.8 1004.0 0.0
20/03:30pm 32.4 35.5 22.8 57 6.6 SE 11 19 6 10 1005.0 1004.2 0.0
20/03:00pm 33.0 36.6 23.0 55 6.9 ENE 9 13 5 7 1005.2 1004.4 0.0
20/02:30pm 32.6 34.9 22.7 56 6.8 ESE 15 22 8 12 1005.6 1004.8 0.0
20/02:00pm 32.8 36.6 24.0 60 6.2 E 11 19 6 10 1006.1 1005.3 0.0
20/01:30pm 32.5 35.5 23.4 58 6.3 E 13 22 7 12 1006.7 1005.9 0.0
20/01:00pm 31.7 34.6 23.2 60 5.9 ESE 13 22 7 12 1007.3 1006.6 0.0
20/12:30pm 31.4 35.0 23.8 64 5.3 ESE 11 19 6 10 1007.5 1006.8 0.0
20/12:00pm 31.6 34.4 23.7 63 5.5 ESE 15 24 8 13 1007.7 1007.0 0.0
20/11:30am 31.3 35.2 24.2 66 5.0 ESE 11 22 6 12 1008.1 1007.4 0.0
20/11:00am 30.2 33.5 23.9 69 4.4 SE 13 17 7 9 1008.5 1007.8 0.0
20/10:30am 30.0 33.7 23.9 70 4.2 ESE 11 15 6 8 1008.7 1008.0 0.0
20/10:00am 29.8 34.7 24.7 74 3.6 ESE 7 13 4 7 1008.9 1008.2 0.0
20/09:30am 29.0 34.3 24.3 76 3.3 ESE 4 9 2 5 1009.1 1008.4 0.0
20/09:00am 28.2 33.5 24.4 80 2.7 SE 4 6 2 3 1008.9 1008.2 21.4
20/08:30am 27.3 32.2 24.7 86 1.8 SE 7 9 4 5 1008.7 1008.0 21.4
20/08:00am 26.2 32.3 25.0 93 0.8 SSE 2 4 1 2 1008.5 1007.8 21.4
20/07:30am 25.1 30.7 24.9 99 0.1 SSE 4 6 2 3 1008.1 1007.4 21.4
20/07:00am 24.5 30.1 24.3 99 0.1 S 2 4 1 2 1007.8 1007.1 21.4
20/06:30am 24.5 30.1 24.3 99 0.1 S 2 4 1 2 1007.1 1006.4 21.4
20/06:00am 24.6 30.7 24.4 99 0.1 CALM 0 0 0 0 1006.9 1006.1 21.4
20/05:30am 24.6 29.9 24.4 99 0.1 S 4 4 2 2 1006.7 1005.9 21.4
20/05:00am 24.7 30.1 24.5 99 0.1 SSW 4 6 2 3 1006.7 1005.9 21.4
20/04:30am 24.7 30.8 24.5 99 0.1 CALM 0 0 0 0 1007.0 1006.2 21.2
20/04:00am 24.8 31.0 24.6 99 0.1 CALM 0 0 0 0 1007.1 1006.4 21.2
20/03:30am 25.0 31.3 24.8 99 0.1 CALM 0 0 0 0 1007.2 1006.5 21.2
20/03:00am 25.0 31.0 24.8 99 0.1 WSW 2 2 1 1 1007.1 1006.4 21.2
20/02:30am 25.1 31.1 24.9 99 0.1 WSW 2 2 1 1 1007.2 1006.5 21.2
20/02:00am 25.1 30.7 24.9 99 0.1 SSW 4 6 2 3 1007.2 1006.5 21.2
20/01:30am 25.0 31.3 24.8 99 0.1 CALM 0 0 0 0 1007.7 1007.0 21.2
20/01:00am 25.2 31.7 25.0 99 0.1 CALM 0 0 0 0 1007.9 1007.2 21.2
20/12:30am 25.3 31.8 25.1 99 0.1 CALM 0 0 0 0 1008.1 1007.4 21.2
20/12:00am 25.2 31.7 25.0 99 0.1 CALM 0 0 0 0 1008.3 1007.6 21.2
 
Date/Time
CST
Temp
°C
App
Temp
°C
Dew
Point
°C
Rel
Hum
%
Delta-T
°C
Wind Press
QNH
hPa
Press
MSL
hPa
Rain since
9am
mm
Dir  Spd
km/h
Gust
km/h
Spd
kts
Gust
kts
19/11:30pm 25.3 31.8 25.0 98 0.2 CALM 0 0 0 0 1008.7 1008.0 21.2
19/11:00pm 25.4 31.2 25.1 98 0.2 SSE 4 6 2 3 1008.7 1008.0 21.2
19/10:30pm 25.3 30.9 24.8 97 0.3 SSE 4 6 2 3 1009.2 1008.5 21.2
19/10:00pm 25.3 30.5 24.8 97 0.3 SE 6 6 3 3 1009.7 1009.0 21.2
19/09:30pm 25.6 31.7 25.1 97 0.3 SE 2 6 1 3 1009.5 1008.8 21.2
19/09:00pm 25.6 31.0 25.4 99 0.1 ESE 7 11 4 6 1009.1 1008.4 21.2
19/08:30pm 25.5 31.3 25.2 98 0.2 SSE 4 6 2 3 1008.6 1007.9 21.2
19/08:00pm 25.8 31.4 25.5 98 0.2 NE 6 7 3 4 1008.1 1007.4 20.8
19/07:30pm 25.6 31.9 24.7 95 0.6 CALM 0 2 0 1 1007.8 1007.1 20.8
19/07:00pm 25.4 30.9 24.7 96 0.5 NW 4 4 2 2 1006.8 1006.0 20.8
19/06:30pm 25.8 31.6 25.1 96 0.5 W 4 7 2 4 1006.7 1005.9 20.8
19/06:00pm 25.7 31.0 25.2 97 0.4 NW 7 9 4 5 1005.9 1005.1 20.8
19/05:30pm 25.4 30.7 24.9 97 0.3 NNW 6 7 3 4 1006.2 1005.4 20.8
19/05:00pm 25.2 30.1 24.7 97 0.3 NNW 7 9 4 5 1006.5 1005.7 20.8
19/04:30pm 25.7 30.3 24.7 94 0.7 NNE 9 17 5 9 1007.9 1007.2 14.2
19/04:00pm 26.2 31.6 25.5 96 0.5 NNW 7 11 4 6 1007.2 1006.5 11.2
19/03:30pm 25.6 27.1 23.7 89 1.3 ENE 22 37 12 20 1007.1 1006.4 7.0
19/03:20pm 28.1 30.4 22.8 73 3.6 ENE 15 35 8 19 1006.4 1005.6 0.4
19/03:00pm 33.2 36.3 22.9 54 7.1 S 11 17 6 9 1005.8 1005.0 0.2
19/02:30pm 33.3 36.9 22.4 52 7.5 E 7 13 4 7 1006.6 1005.8 0.2
19/02:00pm 32.8 36.5 23.2 57 6.7 SE 9 13 5 7 1006.9 1006.1 0.2
19/01:30pm 32.2 36.1 22.6 57 6.6 ENE 6 11 3 6 1007.7 1007.0 0.2
19/01:00pm 32.3 37.1 23.5 59 6.1 NE 4 7 2 4 1008.1 1007.4 0.2
19/12:30pm 31.5 35.5 22.8 60 6.0 NNE 6 9 3 5 1008.4 1007.7 0.2
19/12:00pm 31.2 35.3 23.0 61 5.7 NNE 6 7 3 4 1008.7 1008.0 0.2
19/11:30am 31.4 36.7 24.3 66 5.0 ESE 4 11 2 6 1009.1 1008.4 0.2
19/11:00am 29.7 34.5 24.1 72 3.9 N 6 9 3 5 1009.2 1008.5 0.2
19/10:30am 29.0 33.7 23.9 74 3.5 NE 6 9 3 5 1009.5 1008.8 0.0
19/10:00am 28.9 33.3 23.8 74 3.5 NE 7 11 4 6 1009.6 1008.9 0.0
19/09:30am 28.8 33.4 24.1 76 3.3 ENE 7 9 4 5 1009.5 1008.8 0.0
19/09:00am 28.1 32.3 24.1 79 2.8 E 9 11 5 6 1009.3 1008.6 10.6
19/08:30am 27.6 32.1 24.0 81 2.5 E 7 13 4 7 1009.2 1008.5 10.6
19/08:00am 26.0 30.8 24.2 90 1.2 ESE 6 7 3 4 1008.9 1008.2 10.6

Latest Capital City Observations: Canberra | Sydney | Melbourne | Brisbane | Adelaide | Perth | Hobart | Darwin

Other Formats:

Comma delimited format used in spreadsheet applications
http://www.bom.gov.au/fwo/IDD60901/IDD60901.94125.axf

JavaScript Object Notation format (JSON) in row-major order
http://www.bom.gov.au/fwo/IDD60901/IDD60901.94125.json